sensor_id;sensor_type;location;lat;lon;timestamp;temperature;humidity
13354;DHT22;6746;50.892;4.064;2023-05-07T00:02:37;16.20;99.90
13354;DHT22;6746;50.892;4.064;2023-05-07T00:05:15;16.10;99.90
13354;DHT22;6746;50.892;4.064;2023-05-07T00:08:03;16.10;99.90
13354;DHT22;6746;50.892;4.064;2023-05-07T00:10:48;16.10;99.90
13354;DHT22;6746;50.892;4.064;2023-05-07T00:13:27;16.10;99.90
13354;DHT22;6746;50.892;4.064;2023-05-07T00:16:05;16.00;99.90
13354;DHT22;6746;50.892;4.064;2023-05-07T00:18:43;16.00;99.90
13354;DHT22;6746;50.892;4.064;2023-05-07T00:21:33;16.00;99.90
13354;DHT22;6746;50.892;4.064;2023-05-07T00:24:21;15.90;99.90
13354;DHT22;6746;50.892;4.064;2023-05-07T00:27:09;15.90;99.90
13354;DHT22;6746;50.892;4.064;2023-05-07T00:29:57;15.80;99.90
13354;DHT22;6746;50.892;4.064;2023-05-07T00:32:45;15.80;99.90
13354;DHT22;6746;50.892;4.064;2023-05-07T00:35:27;15.80;99.90
13354;DHT22;6746;50.892;4.064;2023-05-07T00:38:05;15.80;99.90
13354;DHT22;6746;50.892;4.064;2023-05-07T00:40:51;15.70;99.90
13354;DHT22;6746;50.892;4.064;2023-05-07T00:43:29;15.70;99.90
13354;DHT22;6746;50.892;4.064;2023-05-07T00:46:07;15.60;99.90
13354;DHT22;6746;50.892;4.064;2023-05-07T00:48:45;15.60;99.90
13354;DHT22;6746;50.892;4.064;2023-05-07T00:51:33;15.50;99.90
13354;DHT22;6746;50.892;4.064;2023-05-07T00:54:14;15.40;99.90
13354;DHT22;6746;50.892;4.064;2023-05-07T00:56:53;15.30;99.90
13354;DHT22;6746;50.892;4.064;2023-05-07T00:59:40;15.20;99.90
13354;DHT22;6746;50.892;4.064;2023-05-07T01:02:28;15.10;99.90
13354;DHT22;6746;50.892;4.064;2023-05-07T01:05:16;15.10;99.90
13354;DHT22;6746;50.892;4.064;2023-05-07T01:08:04;15.00;99.90
13354;DHT22;6746;50.892;4.064;2023-05-07T01:10:52;15.00;99.90
13354;DHT22;6746;50.892;4.064;2023-05-07T01:13:40;14.90;99.90
13354;DHT22;6746;50.892;4.064;2023-05-07T01:16:29;14.90;99.90
13354;DHT22;6746;50.892;4.064;2023-05-07T01:19:17;14.90;99.90
13354;DHT22;6746;50.892;4.064;2023-05-07T01:22:08;14.90;99.90
13354;DHT22;6746;50.892;4.064;2023-05-07T01:24:55;14.80;99.90
13354;DHT22;6746;50.892;4.064;2023-05-07T01:27:44;14.80;99.90
13354;DHT22;6746;50.892;4.064;2023-05-07T01:30:27;14.80;99.90
13354;DHT22;6746;50.892;4.064;2023-05-07T01:33:09;14.80;99.90
13354;DHT22;6746;50.892;4.064;2023-05-07T01:35:47;14.70;99.90
13354;DHT22;6746;50.892;4.064;2023-05-07T01:38:25;14.70;99.90
13354;DHT22;6746;50.892;4.064;2023-05-07T01:41:03;14.70;99.90
13354;DHT22;6746;50.892;4.064;2023-05-07T01:43:41;14.70;99.90
13354;DHT22;6746;50.892;4.064;2023-05-07T01:46:19;14.70;99.90
13354;DHT22;6746;50.892;4.064;2023-05-07T01:48:57;14.60;99.90
13354;DHT22;6746;50.892;4.064;2023-05-07T01:51:38;14.60;99.90
13354;DHT22;6746;50.892;4.064;2023-05-07T01:54:16;14.60;99.90
13354;DHT22;6746;50.892;4.064;2023-05-07T01:57:04;14.60;99.90
13354;DHT22;6746;50.892;4.064;2023-05-07T01:59:52;14.60;99.90
13354;DHT22;6746;50.892;4.064;2023-05-07T02:02:40;14.70;99.90
13354;DHT22;6746;50.892;4.064;2023-05-07T02:05:28;14.80;99.90
13354;DHT22;6746;50.892;4.064;2023-05-07T02:08:16;14.90;99.90
13354;DHT22;6746;50.892;4.064;2023-05-07T02:11:05;14.90;99.90
13354;DHT22;6746;50.892;4.064;2023-05-07T02:13:53;15.00;99.90
13354;DHT22;6746;50.892;4.064;2023-05-07T02:16:34;15.10;99.90
13354;DHT22;6746;50.892;4.064;2023-05-07T02:19:12;15.10;99.90
13354;DHT22;6746;50.892;4.064;2023-05-07T02:21:50;15.10;99.90
13354;DHT22;6746;50.892;4.064;2023-05-07T02:24:28;15.10;99.90
13354;DHT22;6746;50.892;4.064;2023-05-07T02:27:09;15.10;99.90
13354;DHT22;6746;50.892;4.064;2023-05-07T02:29:47;15.10;99.90
13354;DHT22;6746;50.892;4.064;2023-05-07T02:32:25;15.00;99.90
13354;DHT22;6746;50.892;4.064;2023-05-07T02:35:03;15.00;99.90
13354;DHT22;6746;50.892;4.064;2023-05-07T02:37:41;15.00;99.90
13354;DHT22;6746;50.892;4.064;2023-05-07T02:40:20;15.00;99.90
13354;DHT22;6746;50.892;4.064;2023-05-07T02:43:03;15.00;99.90
13354;DHT22;6746;50.892;4.064;2023-05-07T02:45:41;15.00;99.90
13354;DHT22;6746;50.892;4.064;2023-05-07T02:48:19;14.90;99.90
13354;DHT22;6746;50.892;4.064;2023-05-07T02:50:57;14.90;99.90
13354;DHT22;6746;50.892;4.064;2023-05-07T02:53:35;14.90;99.90
13354;DHT22;6746;50.892;4.064;2023-05-07T02:56:13;14.90;99.90
13354;DHT22;6746;50.892;4.064;2023-05-07T02:58:51;14.90;99.90
13354;DHT22;6746;50.892;4.064;2023-05-07T03:01:30;14.90;99.90
13354;DHT22;6746;50.892;4.064;2023-05-07T03:04:08;14.80;99.90
13354;DHT22;6746;50.892;4.064;2023-05-07T03:06:46;14.80;99.90
13354;DHT22;6746;50.892;4.064;2023-05-07T03:09:34;14.80;99.90
13354;DHT22;6746;50.892;4.064;2023-05-07T03:12:22;14.80;99.90
13354;DHT22;6746;50.892;4.064;2023-05-07T03:15:10;14.70;99.90
13354;DHT22;6746;50.892;4.064;2023-05-07T03:17:58;14.70;99.90
13354;DHT22;6746;50.892;4.064;2023-05-07T03:20:47;14.70;99.90
13354;DHT22;6746;50.892;4.064;2023-05-07T03:23:34;14.70;99.90
13354;DHT22;6746;50.892;4.064;2023-05-07T03:26:18;14.70;99.90
13354;DHT22;6746;50.892;4.064;2023-05-07T03:28:56;14.60;99.90
13354;DHT22;6746;50.892;4.064;2023-05-07T03:31:44;14.60;99.90
13354;DHT22;6746;50.892;4.064;2023-05-07T03:34:32;14.60;99.90
13354;DHT22;6746;50.892;4.064;2023-05-07T03:37:20;14.60;99.90
13354;DHT22;6746;50.892;4.064;2023-05-07T03:40:04;14.60;99.90
13354;DHT22;6746;50.892;4.064;2023-05-07T03:42:43;14.60;99.90
13354;DHT22;6746;50.892;4.064;2023-05-07T03:45:21;14.70;99.90
13354;DHT22;6746;50.892;4.064;2023-05-07T03:47:59;14.70;99.90
13354;DHT22;6746;50.892;4.064;2023-05-07T03:50:39;14.60;99.90
13354;DHT22;6746;50.892;4.064;2023-05-07T03:53:18;14.60;99.90
13354;DHT22;6746;50.892;4.064;2023-05-07T03:55:58;14.60;99.90
13354;DHT22;6746;50.892;4.064;2023-05-07T03:58:37;14.60;99.90
13354;DHT22;6746;50.892;4.064;2023-05-07T04:01:20;14.60;99.90
13354;DHT22;6746;50.892;4.064;2023-05-07T04:03:58;14.50;99.90
13354;DHT22;6746;50.892;4.064;2023-05-07T04:06:36;14.50;99.90
13354;DHT22;6746;50.892;4.064;2023-05-07T04:09:14;14.60;99.90
13354;DHT22;6746;50.892;4.064;2023-05-07T04:11:57;14.60;99.90
13354;DHT22;6746;50.892;4.064;2023-05-07T04:14:35;14.60;99.90
13354;DHT22;6746;50.892;4.064;2023-05-07T04:17:13;14.60;99.90
13354;DHT22;6746;50.892;4.064;2023-05-07T04:19:51;14.60;99.90
13354;DHT22;6746;50.892;4.064;2023-05-07T04:22:28;15.90;99.90
13354;DHT22;6746;50.892;4.064;2023-05-07T04:24:56;14.60;99.90
13354;DHT22;6746;50.892;4.064;2023-05-07T04:27:35;14.70;99.90
13354;DHT22;6746;50.892;4.064;2023-05-07T04:30:11;14.70;99.90
13354;DHT22;6746;50.892;4.064;2023-05-07T04:32:39;14.70;99.90
13354;DHT22;6746;50.892;4.064;2023-05-07T04:35:11;14.70;99.90
13354;DHT22;6746;50.892;4.064;2023-05-07T04:37:40;14.70;99.90
13354;DHT22;6746;50.892;4.064;2023-05-07T04:40:19;14.80;99.90
13354;DHT22;6746;50.892;4.064;2023-05-07T04:42:53;14.80;99.90
13354;DHT22;6746;50.892;4.064;2023-05-07T04:45:21;14.80;99.90
13354;DHT22;6746;50.892;4.064;2023-05-07T04:47:58;14.80;99.90
13354;DHT22;6746;50.892;4.064;2023-05-07T04:50:27;14.90;99.90
13354;DHT22;6746;50.892;4.064;2023-05-07T04:53:00;14.90;99.90
13354;DHT22;6746;50.892;4.064;2023-05-07T04:55:29;15.00;99.90
13354;DHT22;6746;50.892;4.064;2023-05-07T04:58:08;15.00;99.90
13354;DHT22;6746;50.892;4.064;2023-05-07T05:00:46;15.00;99.90
13354;DHT22;6746;50.892;4.064;2023-05-07T05:03:17;15.00;99.90
13354;DHT22;6746;50.892;4.064;2023-05-07T05:05:45;15.10;99.90
13354;DHT22;6746;50.892;4.064;2023-05-07T05:08:14;15.20;99.90
13354;DHT22;6746;50.892;4.064;2023-05-07T05:10:43;15.20;99.90
13354;DHT22;6746;50.892;4.064;2023-05-07T05:13:21;15.30;99.90
13354;DHT22;6746;50.892;4.064;2023-05-07T05:15:59;15.40;99.90
13354;DHT22;6746;50.892;4.064;2023-05-07T05:18:30;15.50;99.90
13354;DHT22;6746;50.892;4.064;2023-05-07T05:20:59;15.50;99.90
13354;DHT22;6746;50.892;4.064;2023-05-07T05:23:30;15.60;99.90
13354;DHT22;6746;50.892;4.064;2023-05-07T05:25:59;15.60;99.90
13354;DHT22;6746;50.892;4.064;2023-05-07T05:28:31;15.60;99.90
13354;DHT22;6746;50.892;4.064;2023-05-07T05:30:59;15.60;99.90
13354;DHT22;6746;50.892;4.064;2023-05-07T05:33:38;15.60;99.90
13354;DHT22;6746;50.892;4.064;2023-05-07T05:36:16;15.50;99.90
13354;DHT22;6746;50.892;4.064;2023-05-07T05:38:55;15.50;99.90
13354;DHT22;6746;50.892;4.064;2023-05-07T05:41:28;15.50;99.90
13354;DHT22;6746;50.892;4.064;2023-05-07T05:43:56;15.40;99.90
13354;DHT22;6746;50.892;4.064;2023-05-07T05:46:35;15.40;99.90
13354;DHT22;6746;50.892;4.064;2023-05-07T05:49:13;15.40;99.90
13354;DHT22;6746;50.892;4.064;2023-05-07T05:51:51;15.50;99.90
13354;DHT22;6746;50.892;4.064;2023-05-07T05:54:29;15.50;99.90
13354;DHT22;6746;50.892;4.064;2023-05-07T05:57:07;15.50;99.90
13354;DHT22;6746;50.892;4.064;2023-05-07T05:59:45;15.50;99.90
13354;DHT22;6746;50.892;4.064;2023-05-07T06:02:23;15.60;99.90
13354;DHT22;6746;50.892;4.064;2023-05-07T06:05:01;15.60;99.90
13354;DHT22;6746;50.892;4.064;2023-05-07T06:07:39;15.60;99.90
13354;DHT22;6746;50.892;4.064;2023-05-07T06:10:18;15.70;99.90
13354;DHT22;6746;50.892;4.064;2023-05-07T06:12:54;15.60;99.90
13354;DHT22;6746;50.892;4.064;2023-05-07T06:15:22;15.70;99.90
13354;DHT22;6746;50.892;4.064;2023-05-07T06:17:59;15.70;99.90
13354;DHT22;6746;50.892;4.064;2023-05-07T06:20:30;15.70;99.90
13354;DHT22;6746;50.892;4.064;2023-05-07T06:23:04;15.60;99.90
13354;DHT22;6746;50.892;4.064;2023-05-07T06:25:33;15.60;99.90
13354;DHT22;6746;50.892;4.064;2023-05-07T06:28:05;15.60;99.90
13354;DHT22;6746;50.892;4.064;2023-05-07T06:30:34;15.60;99.90
13354;DHT22;6746;50.892;4.064;2023-05-07T06:33:12;15.50;99.90
13354;DHT22;6746;50.892;4.064;2023-05-07T06:35:51;15.50;99.90
13354;DHT22;6746;50.892;4.064;2023-05-07T06:38:27;15.40;99.90
13354;DHT22;6746;50.892;4.064;2023-05-07T06:40:56;15.40;99.90
13354;DHT22;6746;50.892;4.064;2023-05-07T06:43:35;15.40;99.90
13354;DHT22;6746;50.892;4.064;2023-05-07T06:46:16;15.30;99.90
13354;DHT22;6746;50.892;4.064;2023-05-07T06:48:54;15.30;99.90
13354;DHT22;6746;50.892;4.064;2023-05-07T06:51:32;15.30;99.90
13354;DHT22;6746;50.892;4.064;2023-05-07T06:54:08;15.30;99.90
13354;DHT22;6746;50.892;4.064;2023-05-07T06:56:39;15.30;99.90
13354;DHT22;6746;50.892;4.064;2023-05-07T06:59:10;15.40;99.90
13354;DHT22;6746;50.892;4.064;2023-05-07T07:01:39;15.50;99.90
13354;DHT22;6746;50.892;4.064;2023-05-07T07:04:08;15.50;99.90
13354;DHT22;6746;50.892;4.064;2023-05-07T07:06:37;15.50;99.90
13354;DHT22;6746;50.892;4.064;2023-05-07T07:09:09;15.60;99.90
13354;DHT22;6746;50.892;4.064;2023-05-07T07:11:37;15.70;99.90
13354;DHT22;6746;50.892;4.064;2023-05-07T07:14:09;15.70;99.90
13354;DHT22;6746;50.892;4.064;2023-05-07T07:16:40;15.70;99.90
13354;DHT22;6746;50.892;4.064;2023-05-07T07:19:12;15.80;99.90
13354;DHT22;6746;50.892;4.064;2023-05-07T07:21:41;15.80;99.90
13354;DHT22;6746;50.892;4.064;2023-05-07T07:24:10;15.80;99.90
13354;DHT22;6746;50.892;4.064;2023-05-07T07:26:39;15.90;99.90
13354;DHT22;6746;50.892;4.064;2023-05-07T07:29:11;15.90;99.90
13354;DHT22;6746;50.892;4.064;2023-05-07T07:31:42;15.90;99.90
13354;DHT22;6746;50.892;4.064;2023-05-07T07:34:14;16.00;99.90
13354;DHT22;6746;50.892;4.064;2023-05-07T07:36:43;16.10;99.90
13354;DHT22;6746;50.892;4.064;2023-05-07T07:39:22;16.10;99.90
13354;DHT22;6746;50.892;4.064;2023-05-07T07:42:00;16.20;99.90
13354;DHT22;6746;50.892;4.064;2023-05-07T07:44:38;16.20;99.90
13354;DHT22;6746;50.892;4.064;2023-05-07T07:47:15;16.20;99.90
13354;DHT22;6746;50.892;4.064;2023-05-07T07:49:44;16.20;99.90
13354;DHT22;6746;50.892;4.064;2023-05-07T07:52:18;16.20;99.90
13354;DHT22;6746;50.892;4.064;2023-05-07T07:54:47;16.20;99.90
13354;DHT22;6746;50.892;4.064;2023-05-07T07:57:18;16.20;99.90
13354;DHT22;6746;50.892;4.064;2023-05-07T07:59:47;16.20;99.90
13354;DHT22;6746;50.892;4.064;2023-05-07T08:02:24;16.20;99.90
13354;DHT22;6746;50.892;4.064;2023-05-07T08:04:53;16.30;99.90
13354;DHT22;6746;50.892;4.064;2023-05-07T08:07:24;16.40;99.90
13354;DHT22;6746;50.892;4.064;2023-05-07T08:09:53;16.40;99.90
13354;DHT22;6746;50.892;4.064;2023-05-07T08:12:32;16.50;99.90
13354;DHT22;6746;50.892;4.064;2023-05-07T08:15:20;16.50;99.90
13354;DHT22;6746;50.892;4.064;2023-05-07T08:17:58;16.50;99.90
13354;DHT22;6746;50.892;4.064;2023-05-07T08:20:26;16.60;99.90
13354;DHT22;6746;50.892;4.064;2023-05-07T08:22:55;16.60;99.90
13354;DHT22;6746;50.892;4.064;2023-05-07T08:25:34;16.70;99.90
13354;DHT22;6746;50.892;4.064;2023-05-07T08:28:12;16.60;99.90
13354;DHT22;6746;50.892;4.064;2023-05-07T08:30:50;16.60;99.90
13354;DHT22;6746;50.892;4.064;2023-05-07T08:33:27;16.60;99.90
13354;DHT22;6746;50.892;4.064;2023-05-07T08:35:56;16.60;99.90
13354;DHT22;6746;50.892;4.064;2023-05-07T08:38:24;16.50;99.90
13354;DHT22;6746;50.892;4.064;2023-05-07T08:40:53;16.50;99.90
13354;DHT22;6746;50.892;4.064;2023-05-07T08:43:22;16.50;99.90
13354;DHT22;6746;50.892;4.064;2023-05-07T08:45:52;16.50;99.90
13354;DHT22;6746;50.892;4.064;2023-05-07T08:48:21;16.50;99.90
13354;DHT22;6746;50.892;4.064;2023-05-07T08:50:49;16.50;99.90
13354;DHT22;6746;50.892;4.064;2023-05-07T08:53:28;16.50;99.90
13354;DHT22;6746;50.892;4.064;2023-05-07T08:56:01;16.50;99.90
13354;DHT22;6746;50.892;4.064;2023-05-07T08:58:30;16.50;99.90
13354;DHT22;6746;50.892;4.064;2023-05-07T09:01:14;16.50;99.90
13354;DHT22;6746;50.892;4.064;2023-05-07T09:03:37;16.60;99.90
13354;DHT22;6746;50.892;4.064;2023-05-07T09:06:16;16.60;99.90
13354;DHT22;6746;50.892;4.064;2023-05-07T09:08:53;16.70;99.90
13354;DHT22;6746;50.892;4.064;2023-05-07T09:11:21;18.50;99.90
13354;DHT22;6746;50.892;4.064;2023-05-07T09:13:53;16.80;99.90
13354;DHT22;6746;50.892;4.064;2023-05-07T09:16:23;16.80;99.90
13354;DHT22;6746;50.892;4.064;2023-05-07T09:18:52;16.80;99.90
13354;DHT22;6746;50.892;4.064;2023-05-07T09:21:20;16.80;99.90
13354;DHT22;6746;50.892;4.064;2023-05-07T09:23:53;16.80;99.90
13354;DHT22;6746;50.892;4.064;2023-05-07T09:26:23;16.90;99.90
13354;DHT22;6746;50.892;4.064;2023-05-07T09:28:52;16.90;99.90
13354;DHT22;6746;50.892;4.064;2023-05-07T09:31:21;17.00;99.90
13354;DHT22;6746;50.892;4.064;2023-05-07T09:33:55;16.80;99.90
13354;DHT22;6746;50.892;4.064;2023-05-07T09:36:23;16.80;99.90
13354;DHT22;6746;50.892;4.064;2023-05-07T09:38:59;16.80;99.90
13354;DHT22;6746;50.892;4.064;2023-05-07T09:41:28;16.70;99.90
13354;DHT22;6746;50.892;4.064;2023-05-07T09:44:05;16.80;99.90
13354;DHT22;6746;50.892;4.064;2023-05-07T09:46:36;16.80;99.90
13354;DHT22;6746;50.892;4.064;2023-05-07T09:49:06;16.80;99.90
13354;DHT22;6746;50.892;4.064;2023-05-07T09:51:45;16.80;99.90
13354;DHT22;6746;50.892;4.064;2023-05-07T09:54:12;16.80;99.90
13354;DHT22;6746;50.892;4.064;2023-05-07T09:56:47;16.90;99.90
13354;DHT22;6746;50.892;4.064;2023-05-07T09:59:15;16.90;99.90
13354;DHT22;6746;50.892;4.064;2023-05-07T10:01:48;17.00;99.90
13354;DHT22;6746;50.892;4.064;2023-05-07T10:04:19;17.00;99.90
13354;DHT22;6746;50.892;4.064;2023-05-07T10:06:58;17.10;99.90
13354;DHT22;6746;50.892;4.064;2023-05-07T10:09:36;17.10;99.90
13354;DHT22;6746;50.892;4.064;2023-05-07T10:12:14;17.10;99.90
13354;DHT22;6746;50.892;4.064;2023-05-07T10:15:02;17.10;99.90
13354;DHT22;6746;50.892;4.064;2023-05-07T10:17:41;17.30;99.90
13354;DHT22;6746;50.892;4.064;2023-05-07T10:20:09;17.40;99.90
13354;DHT22;6746;50.892;4.064;2023-05-07T10:22:38;17.50;99.90
13354;DHT22;6746;50.892;4.064;2023-05-07T10:25:14;17.50;99.90
13354;DHT22;6746;50.892;4.064;2023-05-07T10:27:38;17.60;99.90
13354;DHT22;6746;50.892;4.064;2023-05-07T10:32:39;17.80;99.90
13354;DHT22;6746;50.892;4.064;2023-05-07T10:35:21;17.90;99.90
13354;DHT22;6746;50.892;4.064;2023-05-07T10:37:57;17.90;99.90
13354;DHT22;6746;50.892;4.064;2023-05-07T10:40:36;17.90;99.90
13354;DHT22;6746;50.892;4.064;2023-05-07T10:43:10;18.10;99.90
13354;DHT22;6746;50.892;4.064;2023-05-07T10:45:38;18.00;99.90
13354;DHT22;6746;50.892;4.064;2023-05-07T10:50:44;18.00;99.90
13354;DHT22;6746;50.892;4.064;2023-05-07T10:53:22;18.00;99.90
13354;DHT22;6746;50.892;4.064;2023-05-07T10:55:51;18.10;99.90
13354;DHT22;6746;50.892;4.064;2023-05-07T11:00:56;17.80;99.90
13354;DHT22;6746;50.892;4.064;2023-05-07T11:03:19;17.80;99.90
13354;DHT22;6746;50.892;4.064;2023-05-07T11:06:11;17.70;99.90
13354;DHT22;6746;50.892;4.064;2023-05-07T11:08:53;17.70;99.90
13354;DHT22;6746;50.892;4.064;2023-05-07T11:11:45;17.80;99.90
13354;DHT22;6746;50.892;4.064;2023-05-07T11:17:09;17.70;99.90
13354;DHT22;6746;50.892;4.064;2023-05-07T11:19:53;17.60;99.90
13354;DHT22;6746;50.892;4.064;2023-05-07T11:25:07;17.50;99.90
13354;DHT22;6746;50.892;4.064;2023-05-07T11:27:35;17.50;99.90
13354;DHT22;6746;50.892;4.064;2023-05-07T11:30:17;17.70;99.90
13354;DHT22;6746;50.892;4.064;2023-05-07T11:32:58;17.80;99.90
13354;DHT22;6746;50.892;4.064;2023-05-07T11:35:36;17.80;99.90
13354;DHT22;6746;50.892;4.064;2023-05-07T11:38:14;18.00;99.90
13354;DHT22;6746;50.892;4.064;2023-05-07T11:40:56;18.20;99.90
13354;DHT22;6746;50.892;4.064;2023-05-07T11:43:34;18.30;99.90
13354;DHT22;6746;50.892;4.064;2023-05-07T11:46:07;18.50;99.90
13354;DHT22;6746;50.892;4.064;2023-05-07T11:48:43;18.70;99.90
13354;DHT22;6746;50.892;4.064;2023-05-07T11:51:22;18.80;99.90
13354;DHT22;6746;50.892;4.064;2023-05-07T11:53:59;18.80;99.90
13354;DHT22;6746;50.892;4.064;2023-05-07T11:56:37;18.80;99.90
13354;DHT22;6746;50.892;4.064;2023-05-07T11:59:18;19.00;99.90
13354;DHT22;6746;50.892;4.064;2023-05-07T12:01:49;18.90;99.90
13354;DHT22;6746;50.892;4.064;2023-05-07T12:04:21;19.00;99.90
13354;DHT22;6746;50.892;4.064;2023-05-07T12:06:55;19.10;99.90
13354;DHT22;6746;50.892;4.064;2023-05-07T12:09:23;19.10;99.90
13354;DHT22;6746;50.892;4.064;2023-05-07T12:12:05;19.10;99.90
13354;DHT22;6746;50.892;4.064;2023-05-07T12:14:43;19.20;99.90
13354;DHT22;6746;50.892;4.064;2023-05-07T12:17:14;19.20;99.90
13354;DHT22;6746;50.892;4.064;2023-05-07T12:19:43;19.20;99.90
13354;DHT22;6746;50.892;4.064;2023-05-07T12:22:14;19.50;99.90
13354;DHT22;6746;50.892;4.064;2023-05-07T12:24:58;19.60;99.90
13354;DHT22;6746;50.892;4.064;2023-05-07T12:27:36;19.40;99.90
13354;DHT22;6746;50.892;4.064;2023-05-07T12:30:03;19.40;99.90
13354;DHT22;6746;50.892;4.064;2023-05-07T12:32:42;19.30;99.90
13354;DHT22;6746;50.892;4.064;2023-05-07T12:35:29;19.20;99.90
13354;DHT22;6746;50.892;4.064;2023-05-07T12:38:04;18.90;99.90
13354;DHT22;6746;50.892;4.064;2023-05-07T12:40:45;18.60;99.90
13354;DHT22;6746;50.892;4.064;2023-05-07T12:43:28;18.40;99.90
13354;DHT22;6746;50.892;4.064;2023-05-07T12:46:07;18.40;99.90
13354;DHT22;6746;50.892;4.064;2023-05-07T12:48:36;18.40;99.90
13354;DHT22;6746;50.892;4.064;2023-05-07T12:51:14;18.30;99.90
13354;DHT22;6746;50.892;4.064;2023-05-07T12:53:52;18.60;99.90
13354;DHT22;6746;50.892;4.064;2023-05-07T12:56:30;20.20;99.90
13354;DHT22;6746;50.892;4.064;2023-05-07T12:59:08;18.80;99.90
13354;DHT22;6746;50.892;4.064;2023-05-07T13:01:47;18.80;99.90
13354;DHT22;6746;50.892;4.064;2023-05-07T13:04:25;19.00;99.90
13354;DHT22;6746;50.892;4.064;2023-05-07T13:07:13;19.10;99.90
13354;DHT22;6746;50.892;4.064;2023-05-07T13:09:51;19.30;99.90
13354;DHT22;6746;50.892;4.064;2023-05-07T13:12:29;19.30;99.90
13354;DHT22;6746;50.892;4.064;2023-05-07T13:15:07;19.30;99.90
13354;DHT22;6746;50.892;4.064;2023-05-07T13:17:45;19.30;99.90
13354;DHT22;6746;50.892;4.064;2023-05-07T13:20:14;19.50;99.90
13354;DHT22;6746;50.892;4.064;2023-05-07T13:22:43;19.70;99.90
13354;DHT22;6746;50.892;4.064;2023-05-07T13:25:12;19.90;99.90
13354;DHT22;6746;50.892;4.064;2023-05-07T13:27:41;20.00;99.90
13354;DHT22;6746;50.892;4.064;2023-05-07T13:30:10;20.10;99.90
13354;DHT22;6746;50.892;4.064;2023-05-07T13:32:39;20.00;99.90
13354;DHT22;6746;50.892;4.064;2023-05-07T13:35:16;19.80;99.90
13354;DHT22;6746;50.892;4.064;2023-05-07T13:37:44;19.80;99.90
13354;DHT22;6746;50.892;4.064;2023-05-07T13:40:16;19.90;99.90
13354;DHT22;6746;50.892;4.064;2023-05-07T13:42:47;19.90;99.90
13354;DHT22;6746;50.892;4.064;2023-05-07T13:45:26;20.20;99.90
13354;DHT22;6746;50.892;4.064;2023-05-07T13:47:55;20.30;99.90
13354;DHT22;6746;50.892;4.064;2023-05-07T13:50:27;20.10;99.90
13354;DHT22;6746;50.892;4.064;2023-05-07T13:52:56;20.10;99.90
13354;DHT22;6746;50.892;4.064;2023-05-07T13:55:25;20.20;99.90
13354;DHT22;6746;50.892;4.064;2023-05-07T13:57:57;20.30;99.90
13354;DHT22;6746;50.892;4.064;2023-05-07T14:00:34;20.40;99.90
13354;DHT22;6746;50.892;4.064;2023-05-07T14:03:05;20.10;99.90
13354;DHT22;6746;50.892;4.064;2023-05-07T14:05:36;20.30;99.90
13354;DHT22;6746;50.892;4.064;2023-05-07T14:08:06;20.50;99.90
13354;DHT22;6746;50.892;4.064;2023-05-07T14:10:35;20.50;99.90
13354;DHT22;6746;50.892;4.064;2023-05-07T14:13:04;20.60;99.90
13354;DHT22;6746;50.892;4.064;2023-05-07T14:15:33;20.50;99.90
13354;DHT22;6746;50.892;4.064;2023-05-07T14:18:01;20.60;99.90
13354;DHT22;6746;50.892;4.064;2023-05-07T14:20:40;20.70;99.90
13354;DHT22;6746;50.892;4.064;2023-05-07T14:23:18;20.80;99.90
13354;DHT22;6746;50.892;4.064;2023-05-07T14:25:56;20.70;99.90
13354;DHT22;6746;50.892;4.064;2023-05-07T14:28:35;20.40;99.90
13354;DHT22;6746;50.892;4.064;2023-05-07T14:31:23;20.50;99.90
13354;DHT22;6746;50.892;4.064;2023-05-07T14:34:01;20.50;99.90
13354;DHT22;6746;50.892;4.064;2023-05-07T14:36:39;20.60;99.90
13354;DHT22;6746;50.892;4.064;2023-05-07T14:39:17;20.80;99.90
13354;DHT22;6746;50.892;4.064;2023-05-07T14:41:46;20.80;99.90
13354;DHT22;6746;50.892;4.064;2023-05-07T14:44:15;20.80;99.90
13354;DHT22;6746;50.892;4.064;2023-05-07T14:46:52;21.00;99.90
13354;DHT22;6746;50.892;4.064;2023-05-07T14:49:25;20.80;99.90
13354;DHT22;6746;50.892;4.064;2023-05-07T14:51:56;20.80;99.90
13354;DHT22;6746;50.892;4.064;2023-05-07T14:54:23;21.00;99.90
13354;DHT22;6746;50.892;4.064;2023-05-07T14:56:52;21.00;99.90
13354;DHT22;6746;50.892;4.064;2023-05-07T14:59:21;21.00;99.90
13354;DHT22;6746;50.892;4.064;2023-05-07T15:01:50;20.90;99.90
13354;DHT22;6746;50.892;4.064;2023-05-07T15:04:19;21.10;99.90
13354;DHT22;6746;50.892;4.064;2023-05-07T15:06:50;21.30;99.90
13354;DHT22;6746;50.892;4.064;2023-05-07T15:09:19;21.30;99.90
13354;DHT22;6746;50.892;4.064;2023-05-07T15:11:56;21.30;99.90
13354;DHT22;6746;50.892;4.064;2023-05-07T15:14:25;21.20;99.90
13354;DHT22;6746;50.892;4.064;2023-05-07T15:17:03;21.20;99.90
13354;DHT22;6746;50.892;4.064;2023-05-07T15:19:37;21.20;99.90
13354;DHT22;6746;50.892;4.064;2023-05-07T15:22:06;21.00;99.90
13354;DHT22;6746;50.892;4.064;2023-05-07T15:24:44;20.90;99.90
13354;DHT22;6746;50.892;4.064;2023-05-07T15:27:23;21.10;99.90
13354;DHT22;6746;50.892;4.064;2023-05-07T15:30:01;21.10;99.90
13354;DHT22;6746;50.892;4.064;2023-05-07T15:32:49;21.10;99.90
13354;DHT22;6746;50.892;4.064;2023-05-07T15:35:27;21.20;99.90
13354;DHT22;6746;50.892;4.064;2023-05-07T15:37:58;21.00;99.90
13354;DHT22;6746;50.892;4.064;2023-05-07T15:40:27;21.00;99.90
13354;DHT22;6746;50.892;4.064;2023-05-07T15:43:09;21.10;99.90
13354;DHT22;6746;50.892;4.064;2023-05-07T15:45:41;21.20;99.90
13354;DHT22;6746;50.892;4.064;2023-05-07T15:48:09;21.20;99.90
13354;DHT22;6746;50.892;4.064;2023-05-07T15:50:41;21.20;99.90
13354;DHT22;6746;50.892;4.064;2023-05-07T15:53:19;21.00;99.90
13354;DHT22;6746;50.892;4.064;2023-05-07T15:55:48;21.20;99.90
13354;DHT22;6746;50.892;4.064;2023-05-07T15:58:17;21.20;99.90
13354;DHT22;6746;50.892;4.064;2023-05-07T16:03:36;21.10;99.90
13354;DHT22;6746;50.892;4.064;2023-05-07T16:06:05;21.00;99.90
13354;DHT22;6746;50.892;4.064;2023-05-07T16:08:34;21.00;99.90
13354;DHT22;6746;50.892;4.064;2023-05-07T16:11:06;21.00;99.90
13354;DHT22;6746;50.892;4.064;2023-05-07T16:13:45;21.00;99.90
13354;DHT22;6746;50.892;4.064;2023-05-07T16:16:21;21.00;99.90
13354;DHT22;6746;50.892;4.064;2023-05-07T16:18:54;21.00;99.90
13354;DHT22;6746;50.892;4.064;2023-05-07T16:21:30;21.10;99.90
13354;DHT22;6746;50.892;4.064;2023-05-07T16:24:06;21.10;99.90
13354;DHT22;6746;50.892;4.064;2023-05-07T16:26:35;21.00;99.90
13354;DHT22;6746;50.892;4.064;2023-05-07T16:29:13;20.90;99.90
13354;DHT22;6746;50.892;4.064;2023-05-07T16:31:52;20.90;99.90
13354;DHT22;6746;50.892;4.064;2023-05-07T16:34:23;20.80;99.90
13354;DHT22;6746;50.892;4.064;2023-05-07T16:36:51;20.60;99.90
13354;DHT22;6746;50.892;4.064;2023-05-07T16:39:23;20.40;99.90
13354;DHT22;6746;50.892;4.064;2023-05-07T16:41:54;20.00;99.90
13354;DHT22;6746;50.892;4.064;2023-05-07T16:44:33;19.80;99.90
13354;DHT22;6746;50.892;4.064;2023-05-07T16:47:11;19.70;99.90
13354;DHT22;6746;50.892;4.064;2023-05-07T16:49:47;19.60;99.90
13354;DHT22;6746;50.892;4.064;2023-05-07T16:52:16;19.40;99.90
13354;DHT22;6746;50.892;4.064;2023-05-07T16:54:45;19.40;99.90
13354;DHT22;6746;50.892;4.064;2023-05-07T16:57:14;19.30;99.90